createdAt,value
2023-03-11T00:00:15.923Z,58.31
2023-03-11T00:01:16.122Z,58.62
2023-03-11T00:02:15.940Z,58.83
2023-03-11T00:03:16.141Z,58.51
2023-03-11T00:04:16.018Z,58.72
2023-03-11T00:05:16.150Z,58.62
2023-03-11T00:06:15.950Z,58.72
2023-03-11T00:07:16.096Z,59.47
2023-03-11T00:08:16.104Z,59.16
2023-03-11T00:09:16.185Z,59.36
2023-03-11T00:10:15.967Z,59.57
2023-03-11T00:11:16.026Z,59.88
2023-03-11T00:12:15.915Z,59.98
2023-03-11T00:13:15.795Z,60.29
2023-03-11T00:14:16.015Z,60.19
2023-03-11T00:15:15.772Z,60.26
2023-03-11T00:16:15.953Z,60.26
2023-03-11T00:17:15.806Z,60.26
2023-03-11T00:18:15.960Z,59.72
2023-03-11T00:19:15.877Z,59.31
2023-03-11T00:20:15.900Z,59.62
2023-03-11T00:21:15.879Z,59.41
2023-03-11T00:22:15.883Z,59.62
2023-03-11T00:23:15.882Z,59.64
2023-03-11T00:24:15.858Z,59.75
2023-03-11T00:25:15.900Z,59.85
2023-03-11T00:26:15.822Z,59.95
2023-03-11T00:27:15.756Z,60.36
2023-03-11T00:28:15.693Z,61.08
2023-03-11T00:29:15.787Z,60.57
2023-03-11T00:30:15.703Z,60.67
2023-03-11T00:31:15.835Z,61.00
2023-03-11T00:32:15.761Z,61.83
2023-03-11T00:33:15.745Z,62.31
2023-03-11T00:34:15.684Z,65.12
2023-03-11T00:35:15.965Z,67.58
2023-03-11T00:36:15.693Z,71.51
2023-03-11T00:37:15.718Z,76.83
2023-03-11T00:38:15.648Z,79.85
2023-03-11T00:39:15.756Z,81.29
2023-03-11T00:40:15.703Z,81.57
2023-03-11T00:41:15.755Z,84.77
2023-03-11T00:42:15.675Z,85.63
2023-03-11T00:43:15.456Z,85.97
2023-03-11T00:44:15.687Z,87.15
2023-03-11T00:45:15.610Z,88.18
2023-03-11T00:46:15.723Z,87.15
2023-03-11T00:47:15.434Z,86.84
2023-03-11T00:48:15.634Z,87.46
2023-03-11T00:49:15.433Z,87.92
2023-03-11T00:50:15.641Z,87.71
2023-03-11T00:51:15.506Z,87.81
2023-03-11T00:52:15.543Z,88.02
2023-03-11T00:53:15.487Z,88.74
2023-03-11T00:54:15.607Z,88.95
2023-03-11T00:55:15.626Z,88.64
2023-03-11T00:56:15.607Z,88.02
2023-03-11T00:57:15.533Z,87.92
2023-03-11T00:58:15.512Z,87.29
2023-03-11T00:59:15.476Z,86.47
2023-03-11T01:00:15.313Z,85.50
2023-03-11T01:01:15.494Z,84.88
2023-03-11T01:02:15.409Z,83.44
2023-03-11T01:03:15.433Z,82.47
2023-03-11T01:04:15.372Z,80.93
2023-03-11T01:05:15.543Z,78.41
2023-03-11T01:06:15.354Z,76.04
2023-03-11T01:07:15.525Z,75.43
2023-03-11T01:08:15.441Z,74.71
2023-03-11T01:09:15.465Z,74.67
2023-03-11T01:10:15.286Z,73.57
2023-03-11T01:11:15.618Z,73.88
2023-03-11T01:12:15.343Z,71.30
2023-03-11T01:13:15.512Z,70.07
2023-03-11T01:14:15.339Z,71.10
2023-03-11T01:15:15.174Z,71.92
2023-03-11T01:16:15.518Z,72.44
2023-03-11T01:17:15.123Z,73.68
2023-03-11T01:18:15.383Z,72.96
2023-03-11T01:19:15.195Z,73.05
2023-03-11T01:20:15.333Z,73.30
2023-03-11T01:21:15.112Z,72.96
2023-03-11T01:22:15.305Z,70.41
2023-03-11T01:23:15.284Z,69.69
2023-03-11T01:24:15.256Z,70.31
2023-03-11T01:25:15.185Z,70.82
2023-03-11T01:26:15.273Z,71.82
2023-03-11T01:27:15.177Z,70.41
2023-03-11T01:28:15.354Z,70.72
2023-03-11T01:29:15.107Z,69.07
2023-03-11T01:30:15.093Z,70.07
2023-03-11T01:31:15.203Z,67.70
2023-03-11T01:32:15.008Z,68.21
2023-03-11T01:33:15.284Z,66.97
2023-03-11T01:34:15.164Z,66.56
2023-03-11T01:35:15.148Z,66.87
2023-03-11T01:36:15.661Z,67.21
2023-03-11T01:37:15.200Z,67.24
2023-03-11T01:38:15.052Z,67.45
2023-03-11T01:39:15.212Z,69.03
2023-03-11T01:40:14.992Z,69.65
2023-03-11T01:41:15.131Z,66.45
2023-03-11T01:42:15.338Z,66.73
2023-03-11T01:43:15.121Z,65.18
2023-03-11T01:44:14.349Z,66.31
2023-03-11T01:45:15.138Z,65.36
2023-03-11T01:46:15.114Z,64.64
2023-03-11T01:47:15.495Z,63.19
2023-03-11T01:48:14.968Z,62.06
2023-03-11T01:49:15.869Z,62.99
2023-03-11T01:50:15.028Z,63.92
2023-03-11T01:51:15.678Z,63.09
2023-03-11T01:52:15.091Z,63.29
2023-03-11T01:53:15.201Z,63.19
2023-03-11T01:54:14.958Z,63.09
2023-03-11T01:55:14.918Z,62.68
2023-03-11T01:56:14.955Z,62.29
2023-03-11T01:57:14.848Z,61.36
2023-03-11T01:58:14.918Z,62.19
2023-03-11T01:59:14.898Z,62.68
2023-03-11T02:00:15.100Z,62.37
2023-03-11T02:01:15.000Z,61.44
2023-03-11T02:02:15.011Z,61.65
2023-03-11T02:03:14.879Z,59.82
2023-03-11T02:04:14.730Z,59.74
2023-03-11T02:05:14.921Z,61.08
2023-03-11T02:06:14.718Z,60.47
2023-03-11T02:07:14.834Z,60.77
2023-03-11T02:08:14.671Z,60.77
2023-03-11T02:09:14.836Z,59.30
2023-03-11T02:10:14.911Z,60.26
2023-03-11T02:11:15.001Z,60.67
2023-03-11T02:12:14.029Z,61.52
2023-03-11T02:13:14.752Z,61.63
2023-03-11T02:14:14.711Z,62.35
2023-03-11T02:15:14.801Z,61.24
2023-03-11T02:16:14.758Z,61.01
2023-03-11T02:17:14.812Z,60.70
2023-03-11T02:18:15.752Z,60.60
2023-03-11T02:19:14.584Z,60.18
2023-03-11T02:20:14.609Z,60.73
2023-03-11T02:21:14.543Z,61.42
2023-03-11T02:22:14.925Z,61.94
2023-03-11T02:23:14.540Z,59.88
2023-03-11T02:24:14.915Z,59.36
2023-03-11T02:25:14.662Z,59.56
2023-03-11T02:26:14.786Z,60.73
2023-03-11T02:27:14.535Z,61.87
2023-03-11T02:28:14.887Z,61.55
2023-03-11T02:29:14.508Z,61.45
2023-03-11T02:30:14.627Z,60.11
2023-03-11T02:31:14.776Z,60.52
2023-03-11T02:32:14.655Z,61.45
2023-03-11T02:33:14.553Z,61.69
2023-03-11T02:34:14.406Z,61.89
2023-03-11T02:35:14.578Z,62.20
2023-03-11T02:36:14.426Z,62.41
2023-03-11T02:37:14.411Z,60.75
2023-03-11T02:38:14.363Z,61.38
2023-03-11T02:39:14.528Z,62.82
2023-03-11T02:40:14.438Z,61.48
2023-03-11T02:41:14.478Z,61.17
2023-03-11T02:42:14.380Z,62.62
2023-03-11T02:43:14.489Z,61.58
2023-03-11T02:44:14.531Z,62.51
2023-03-11T02:45:14.547Z,60.24
2023-03-11T02:46:14.429Z,59.83
2023-03-11T02:47:14.464Z,59.52
2023-03-11T02:48:14.472Z,59.10
2023-03-11T02:49:14.481Z,59.41
2023-03-11T02:50:14.406Z,59.83
2023-03-11T02:51:14.235Z,59.34
2023-03-11T02:52:14.333Z,59.95
2023-03-11T02:53:14.433Z,59.64
2023-03-11T02:54:14.503Z,61.51
2023-03-11T02:55:14.266Z,59.75
2023-03-11T02:56:14.403Z,58.61
2023-03-11T02:57:14.316Z,59.64
2023-03-11T02:58:14.325Z,60.40
2023-03-11T02:59:14.490Z,59.64
2023-03-11T03:00:14.326Z,59.67
2023-03-11T03:01:14.393Z,59.95
2023-03-11T03:02:14.340Z,58.30
2023-03-11T03:03:14.216Z,59.23
2023-03-11T03:04:14.381Z,58.51
2023-03-11T03:05:14.274Z,59.44
2023-03-11T03:06:14.155Z,58.92
2023-03-11T03:07:14.253Z,59.64
2023-03-11T03:08:14.177Z,60.68
2023-03-11T03:09:14.213Z,59.75
2023-03-11T03:10:14.060Z,59.03
2023-03-11T03:11:14.291Z,59.44
2023-03-11T03:12:14.033Z,59.64
2023-03-11T03:13:14.154Z,59.55
2023-03-11T03:14:14.091Z,58.92
2023-03-11T03:15:14.188Z,59.13
2023-03-11T03:16:14.164Z,59.64
2023-03-11T03:17:15.408Z,58.51
2023-03-11T03:18:14.059Z,55.82
2023-03-11T03:19:14.166Z,55.20
2023-03-11T03:20:14.272Z,55.51
2023-03-11T03:21:14.089Z,56.96
2023-03-11T03:22:14.050Z,56.37
2023-03-11T03:23:13.870Z,55.95
2023-03-11T03:24:14.121Z,56.57
2023-03-11T03:25:13.973Z,54.68
2023-03-11T03:26:13.763Z,56.03
2023-03-11T03:27:14.005Z,54.09
2023-03-11T03:28:14.046Z,55.10
2023-03-11T03:29:15.279Z,53.23
2023-03-11T03:30:14.110Z,53.23
2023-03-11T03:31:13.996Z,51.87
2023-03-11T03:32:14.075Z,51.79
2023-03-11T03:33:13.892Z,52.51
2023-03-11T03:34:14.407Z,52.33
2023-03-11T03:35:13.943Z,52.95
2023-03-11T03:36:14.172Z,52.25
2023-03-11T03:37:13.952Z,51.73
2023-03-11T03:38:13.966Z,52.75
2023-03-11T03:39:13.140Z,51.84
2023-03-11T03:40:13.772Z,52.98
2023-03-11T03:41:13.992Z,52.98
2023-03-11T03:42:13.977Z,52.77
2023-03-11T03:43:14.055Z,52.46
2023-03-11T03:44:13.717Z,51.86
2023-03-11T03:45:14.541Z,52.69
2023-03-11T03:46:17.884Z,52.80
2023-03-11T03:47:13.925Z,52.69
2023-03-11T03:48:13.751Z,53.20
2023-03-11T03:49:13.791Z,53.00
2023-03-11T03:50:13.686Z,53.93
2023-03-11T03:51:13.831Z,54.45
2023-03-11T03:52:13.750Z,54.37
2023-03-11T03:53:13.531Z,53.64
2023-03-11T03:54:13.818Z,54.27
2023-03-11T03:55:13.882Z,54.58
2023-03-11T03:56:13.723Z,54.99
2023-03-11T03:57:14.042Z,54.29
2023-03-11T03:58:13.664Z,53.88
2023-03-11T03:59:13.689Z,54.50
2023-03-11T04:00:13.690Z,55.22
2023-03-11T04:01:13.795Z,55.20
2023-03-11T04:02:13.874Z,54.27
2023-03-11T04:03:13.597Z,54.27
2023-03-11T04:04:13.736Z,54.39
2023-03-11T04:05:13.709Z,54.81
2023-03-11T04:06:13.678Z,55.54
2023-03-11T04:07:13.577Z,55.56
2023-03-11T04:08:13.804Z,55.66
2023-03-11T04:09:13.612Z,55.87
2023-03-11T04:10:13.358Z,54.52
2023-03-11T04:11:13.635Z,54.42
2023-03-11T04:12:13.427Z,55.25
2023-03-11T04:13:13.688Z,53.90
2023-03-11T04:14:13.336Z,53.90
2023-03-11T04:15:13.644Z,54.21
2023-03-11T04:16:13.431Z,54.11
2023-03-11T04:17:13.287Z,54.71
2023-03-11T04:18:13.605Z,52.43
2023-03-11T04:19:13.491Z,52.74
2023-03-11T04:20:13.681Z,54.58
2023-03-11T04:21:13.937Z,53.25
2023-03-11T04:22:13.408Z,53.25
2023-03-11T04:23:13.677Z,53.46
2023-03-11T04:24:13.717Z,54.08
2023-03-11T04:25:13.527Z,54.21
2023-03-11T04:26:13.640Z,54.63
2023-03-11T04:27:13.976Z,54.73
2023-03-11T04:28:13.514Z,55.54
2023-03-11T04:29:14.438Z,53.88
2023-03-11T04:30:13.405Z,53.36
2023-03-11T04:31:13.883Z,53.25
2023-03-11T04:32:13.728Z,53.15
2023-03-11T04:33:13.296Z,53.38
2023-03-11T04:34:13.465Z,54.00
2023-03-11T04:35:13.151Z,54.83
2023-03-11T04:36:13.401Z,53.59
2023-03-11T04:37:13.205Z,53.72
2023-03-11T04:38:13.725Z,54.52
2023-03-11T04:39:13.326Z,53.17
2023-03-11T04:40:13.449Z,53.46
2023-03-11T04:41:13.222Z,53.05
2023-03-11T04:42:13.514Z,52.95
2023-03-11T04:43:13.402Z,53.46
2023-03-11T04:44:13.920Z,52.84
2023-03-11T04:45:13.451Z,53.36
2023-03-11T04:46:13.405Z,53.08
2023-03-11T04:47:12.459Z,54.11
2023-03-11T04:48:13.918Z,53.56
2023-03-11T04:49:13.200Z,52.53
2023-03-11T04:50:13.088Z,52.22
2023-03-11T04:51:13.180Z,51.83
2023-03-11T04:52:13.029Z,52.76
2023-03-11T04:53:13.400Z,53.28
2023-03-11T04:54:13.290Z,53.38
2023-03-11T04:55:13.347Z,52.33
2023-03-11T04:56:13.048Z,50.98
2023-03-11T04:57:13.440Z,51.50
2023-03-11T04:58:13.479Z,51.70
2023-03-11T04:59:12.918Z,52.33
2023-03-11T05:00:13.045Z,52.74
2023-03-11T05:01:12.995Z,52.43
2023-03-11T05:02:13.140Z,52.43
2023-03-11T05:03:12.993Z,51.99
2023-03-11T05:04:13.087Z,52.20
2023-03-11T05:05:12.869Z,51.50
2023-03-11T05:06:13.080Z,52.22
2023-03-11T05:07:12.886Z,51.18
2023-03-11T05:08:13.022Z,52.22
2023-03-11T05:09:12.978Z,52.01
2023-03-11T05:10:12.993Z,52.53
2023-03-11T05:11:13.128Z,52.20
2023-03-11T05:12:13.502Z,52.30
2023-03-11T05:13:12.979Z,52.61
2023-03-11T05:14:12.772Z,52.72
2023-03-11T05:15:13.078Z,51.97
2023-03-11T05:16:13.047Z,50.85
2023-03-11T05:17:13.445Z,51.37
2023-03-11T05:18:13.148Z,51.26
2023-03-11T05:19:12.889Z,51.91
2023-03-11T05:20:13.446Z,51.91
2023-03-11T05:21:13.018Z,51.89
2023-03-11T05:22:12.829Z,51.26
2023-03-11T05:23:12.879Z,51.55
2023-03-11T05:24:12.857Z,50.82
2023-03-11T05:25:12.788Z,50.64
2023-03-11T05:26:12.760Z,51.16
2023-03-11T05:27:12.629Z,50.51
2023-03-11T05:28:12.719Z,51.03
2023-03-11T05:29:12.581Z,50.72
2023-03-11T05:30:12.958Z,50.93
2023-03-11T05:31:12.816Z,50.62
2023-03-11T05:32:13.053Z,50.41
2023-03-11T05:33:12.648Z,50.08
2023-03-11T05:34:12.709Z,49.48
2023-03-11T05:35:13.404Z,50.41
2023-03-11T05:36:12.701Z,50.62
2023-03-11T05:37:12.720Z,49.58
2023-03-11T05:38:12.713Z,50.08
2023-03-11T05:39:12.502Z,50.00
2023-03-11T05:40:12.763Z,50.80
2023-03-11T05:41:13.213Z,50.90
2023-03-11T05:42:13.876Z,50.39
2023-03-11T05:43:13.164Z,49.25
2023-03-11T05:44:12.815Z,49.27
2023-03-11T05:45:12.477Z,49.98
2023-03-11T05:46:13.450Z,49.74
2023-03-11T05:47:12.657Z,48.94
2023-03-11T05:48:12.629Z,49.46
2023-03-11T05:49:12.680Z,49.98
2023-03-11T05:50:12.420Z,49.56
2023-03-11T05:51:12.554Z,50.08
2023-03-11T05:52:12.526Z,49.56
2023-03-11T05:53:12.554Z,49.35
2023-03-11T05:54:13.015Z,50.00
2023-03-11T05:55:12.691Z,50.51
2023-03-11T05:56:12.505Z,49.56
2023-03-11T05:57:12.605Z,49.58
2023-03-11T05:58:12.503Z,50.00
2023-03-11T05:59:13.785Z,49.17
2023-03-11T06:00:12.569Z,49.58
2023-03-11T06:01:12.327Z,49.48
2023-03-11T06:02:12.585Z,49.69
2023-03-11T06:03:12.272Z,50.31
2023-03-11T06:04:12.514Z,50.90
2023-03-11T06:05:13.691Z,50.08
2023-03-11T06:06:12.362Z,49.79
2023-03-11T06:07:12.324Z,50.70
2023-03-11T06:08:12.391Z,50.08
2023-03-11T06:09:12.362Z,50.18
2023-03-11T06:10:12.374Z,49.56
2023-03-11T06:11:12.292Z,49.04
2023-03-11T06:12:12.531Z,48.83
2023-03-11T06:13:12.430Z,49.15
2023-03-11T06:14:13.072Z,48.32
2023-03-11T06:15:12.712Z,48.63
2023-03-11T06:16:12.516Z,48.63
2023-03-11T06:17:12.275Z,48.43
2023-03-11T06:18:12.090Z,48.43
2023-03-11T06:19:12.329Z,48.11
2023-03-11T06:20:12.212Z,48.32
2023-03-11T06:21:12.353Z,48.53
2023-03-11T06:22:12.061Z,48.11
2023-03-11T06:23:12.241Z,48.22
2023-03-11T06:24:12.313Z,48.22
2023-03-11T06:25:12.264Z,47.91
2023-03-11T06:26:12.449Z,47.70
2023-03-11T06:27:12.269Z,48.22
2023-03-11T06:28:12.110Z,48.53
2023-03-11T06:29:12.365Z,48.53
2023-03-11T06:30:12.112Z,47.60
2023-03-11T06:31:12.047Z,48.53
2023-03-11T06:32:12.630Z,48.32
2023-03-11T06:33:12.709Z,48.01
2023-03-11T06:34:11.879Z,48.22
2023-03-11T06:35:11.980Z,48.01
2023-03-11T06:36:12.437Z,47.49
2023-03-11T06:37:11.969Z,47.70
2023-03-11T06:38:12.091Z,47.80
2023-03-11T06:39:12.144Z,47.60
2023-03-11T06:40:12.858Z,47.39
2023-03-11T06:41:11.971Z,47.80
2023-03-11T06:42:12.122Z,47.49
2023-03-11T06:43:11.948Z,47.28
2023-03-11T06:44:12.010Z,47.18
2023-03-11T06:45:12.080Z,47.08
2023-03-11T06:46:12.100Z,46.75
2023-03-11T06:47:11.970Z,45.30
2023-03-11T06:48:11.830Z,46.12
2023-03-11T06:49:11.942Z,46.54
2023-03-11T06:50:11.771Z,47.27
2023-03-11T06:51:12.080Z,46.23
2023-03-11T06:52:11.773Z,46.33
2023-03-11T06:53:11.962Z,45.92
2023-03-11T06:54:11.750Z,45.40
2023-03-11T06:55:11.964Z,44.78
2023-03-11T06:56:11.811Z,45.20
2023-03-11T06:57:12.060Z,45.79
2023-03-11T06:58:11.819Z,46.00
2023-03-11T06:59:11.872Z,45.59
2023-03-11T07:00:12.465Z,44.76
2023-03-11T07:01:11.980Z,44.35
2023-03-11T07:02:11.761Z,44.45
2023-03-11T07:03:11.955Z,42.90
2023-03-11T07:04:12.164Z,43.10
2023-03-11T07:05:11.861Z,43.50
2023-03-11T07:06:12.040Z,44.53
2023-03-11T07:07:11.921Z,44.22
2023-03-11T07:08:11.871Z,44.22
2023-03-11T07:09:11.630Z,44.43
2023-03-11T07:10:11.733Z,45.05
2023-03-11T07:11:11.610Z,45.34
2023-03-11T07:12:11.782Z,45.75
2023-03-11T07:13:11.754Z,44.62
2023-03-11T07:14:11.741Z,44.80
2023-03-11T07:15:11.604Z,44.16
2023-03-11T07:16:11.808Z,44.29
2023-03-11T07:17:11.617Z,43.15
2023-03-11T07:18:11.642Z,42.55
2023-03-11T07:19:11.643Z,42.22
2023-03-11T07:20:11.581Z,43.46
2023-03-11T07:21:11.611Z,42.43
2023-03-11T07:22:11.452Z,42.94
2023-03-11T07:23:11.613Z,43.25
2023-03-11T07:24:10.830Z,43.56
2023-03-11T07:25:11.587Z,43.65
2023-03-11T07:26:11.454Z,42.72
2023-03-11T07:27:11.648Z,42.93
2023-03-11T07:28:11.541Z,42.93
2023-03-11T07:29:11.542Z,43.32
2023-03-11T07:30:11.543Z,43.63
2023-03-11T07:31:11.514Z,43.93
2023-03-11T07:32:11.584Z,42.68
2023-03-11T07:33:11.521Z,42.57
2023-03-11T07:34:11.691Z,41.44
2023-03-11T07:35:11.297Z,41.96
2023-03-11T07:36:11.472Z,42.99
2023-03-11T07:37:11.311Z,43.07
2023-03-11T07:38:11.786Z,41.96
2023-03-11T07:39:11.321Z,41.34
2023-03-11T07:40:11.443Z,41.97
2023-03-11T07:41:11.281Z,42.60
2023-03-11T07:42:11.432Z,43.11
2023-03-11T07:43:11.262Z,43.30
2023-03-11T07:44:11.420Z,43.11
2023-03-11T07:45:11.270Z,42.90
2023-03-11T07:46:11.501Z,42.80
2023-03-11T07:47:11.320Z,43.42
2023-03-11T07:48:11.421Z,43.73
2023-03-11T07:49:11.450Z,43.01
2023-03-11T07:50:11.124Z,43.21
2023-03-11T07:51:11.301Z,43.54
2023-03-11T07:52:11.110Z,43.54
2023-03-11T07:53:11.342Z,44.06
2023-03-11T07:54:11.202Z,44.78
2023-03-11T07:55:11.333Z,44.57
2023-03-11T07:56:11.158Z,44.26
2023-03-11T07:57:11.331Z,44.26
2023-03-11T07:58:11.180Z,43.75
2023-03-11T07:59:11.270Z,44.06
2023-03-11T08:00:11.131Z,44.26
2023-03-11T08:01:11.223Z,43.85
2023-03-11T08:02:11.216Z,43.65
2023-03-11T08:03:11.385Z,44.06
2023-03-11T08:04:13.974Z,44.26
2023-03-11T08:05:11.229Z,44.37
2023-03-11T08:06:11.194Z,43.96
2023-03-11T08:07:10.381Z,44.14
2023-03-11T08:08:11.161Z,43.42
2023-03-11T08:09:11.083Z,42.69
2023-03-11T08:10:11.230Z,42.69
2023-03-11T08:11:11.010Z,42.90
2023-03-11T08:12:10.360Z,42.47
2023-03-11T08:13:10.950Z,42.88
2023-03-11T08:14:11.196Z,42.66
2023-03-11T08:15:11.004Z,42.76
2023-03-11T08:16:11.257Z,42.04
2023-03-11T08:17:10.960Z,41.22
2023-03-11T08:18:11.245Z,41.63
2023-03-11T08:19:10.960Z,41.63
2023-03-11T08:20:11.032Z,42.02
2023-03-11T08:21:10.991Z,41.71
2023-03-11T08:22:10.971Z,41.50
2023-03-11T08:23:10.993Z,41.20
2023-03-11T08:24:10.841Z,41.82
2023-03-11T08:25:10.960Z,42.74
2023-03-11T08:26:10.869Z,41.59
2023-03-11T08:27:10.991Z,41.08
2023-03-11T08:28:10.876Z,41.17
2023-03-11T08:29:10.965Z,41.26
2023-03-11T08:30:10.790Z,41.35
2023-03-11T08:31:10.937Z,40.33
2023-03-11T08:32:10.832Z,40.13
2023-03-11T08:33:10.959Z,41.57
2023-03-11T08:34:10.878Z,41.14
2023-03-11T08:35:10.975Z,40.91
2023-03-11T08:36:11.007Z,40.40
2023-03-11T08:37:10.931Z,39.89
2023-03-11T08:38:11.202Z,40.17
2023-03-11T08:39:10.828Z,39.64
2023-03-11T08:40:10.833Z,39.07
2023-03-11T08:41:10.749Z,38.97
2023-03-11T08:42:10.910Z,38.95
2023-03-11T08:43:10.653Z,38.73
2023-03-11T08:44:10.869Z,37.79
2023-03-11T08:45:10.874Z,38.20
2023-03-11T08:46:10.824Z,37.18
2023-03-11T08:47:10.771Z,36.44
2023-03-11T08:48:10.772Z,36.34
2023-03-11T08:49:10.686Z,36.72
2023-03-11T08:50:10.738Z,36.25
2023-03-11T08:51:10.807Z,34.83
2023-03-11T08:52:11.808Z,34.39
2023-03-11T08:53:10.779Z,33.62
2023-03-11T08:54:11.120Z,34.03
2023-03-11T08:55:10.759Z,31.93
2023-03-11T08:56:10.496Z,32.04
2023-03-11T08:57:10.881Z,31.10
2023-03-11T08:58:10.449Z,32.27
2023-03-11T08:59:10.649Z,32.81
2023-03-11T09:00:12.958Z,32.28
2023-03-11T09:01:10.668Z,32.60
2023-03-11T09:02:10.620Z,33.18
2023-03-11T09:03:10.598Z,33.91
2023-03-11T09:04:10.527Z,34.44
2023-03-11T09:05:10.611Z,35.18
2023-03-11T09:06:10.593Z,35.18
2023-03-11T09:07:11.349Z,36.15
2023-03-11T09:08:10.518Z,36.60
2023-03-11T09:09:11.287Z,33.37
2023-03-11T09:10:10.550Z,33.00
2023-03-11T09:11:11.073Z,31.99
2023-03-11T09:12:10.590Z,32.96
2023-03-11T09:13:10.378Z,34.22
2023-03-11T09:14:10.978Z,35.06
2023-03-11T09:15:10.494Z,35.06
2023-03-11T09:16:10.684Z,36.12
2023-03-11T09:17:10.548Z,36.65
2023-03-11T09:18:10.479Z,37.38
2023-03-11T09:19:10.409Z,37.18
2023-03-11T09:20:10.520Z,38.10
2023-03-11T09:21:10.638Z,37.19
2023-03-11T09:22:10.399Z,37.52
2023-03-11T09:23:10.412Z,37.83
2023-03-11T09:24:10.171Z,38.26
2023-03-11T09:25:10.568Z,38.35
2023-03-11T09:26:10.196Z,38.48
2023-03-11T09:27:10.510Z,38.60
2023-03-11T09:28:10.183Z,39.01
2023-03-11T09:29:10.481Z,39.52
2023-03-11T09:30:10.181Z,38.90
2023-03-11T09:31:10.547Z,38.62
2023-03-11T09:32:10.290Z,39.34
2023-03-11T09:33:10.422Z,39.97
2023-03-11T09:34:10.270Z,39.66
2023-03-11T09:35:10.422Z,40.17
2023-03-11T09:36:10.304Z,40.38
2023-03-11T09:37:10.342Z,40.89
2023-03-11T09:38:10.120Z,40.91
2023-03-11T09:39:10.032Z,41.41
2023-03-11T09:40:10.331Z,41.63
2023-03-11T09:41:10.129Z,41.63
2023-03-11T09:42:10.271Z,41.74
2023-03-11T09:43:10.681Z,42.33
2023-03-11T09:44:10.265Z,41.51
2023-03-11T09:45:10.186Z,41.93
2023-03-11T09:46:10.230Z,41.72
2023-03-11T09:47:10.260Z,42.64
2023-03-11T09:48:10.100Z,42.64
2023-03-11T09:49:10.040Z,43.05
2023-03-11T09:50:10.254Z,43.05
2023-03-11T09:51:10.234Z,43.05
2023-03-11T09:52:10.042Z,42.23
2023-03-11T09:53:10.131Z,41.93
2023-03-11T09:54:09.830Z,41.60
2023-03-11T09:55:10.050Z,40.14
2023-03-11T09:56:09.940Z,38.87
2023-03-11T09:57:10.703Z,37.98
2023-03-11T09:58:09.860Z,38.90
2023-03-11T09:59:10.229Z,38.84
2023-03-11T10:00:09.851Z,39.48
2023-03-11T10:01:10.121Z,40.21
2023-03-11T10:02:10.773Z,40.62
2023-03-11T10:03:10.044Z,40.42
2023-03-11T10:04:09.952Z,41.26
2023-03-11T10:05:10.114Z,40.69
2023-03-11T10:06:09.210Z,38.82
2023-03-11T10:07:09.970Z,36.38
2023-03-11T10:08:09.829Z,34.83
2023-03-11T10:09:09.779Z,35.28
2023-03-11T10:10:10.506Z,36.14
2023-03-11T10:11:09.659Z,36.22
2023-03-11T10:12:10.084Z,37.28
2023-03-11T10:13:09.737Z,37.50
2023-03-11T10:14:10.023Z,37.60
2023-03-11T10:15:09.760Z,37.52
2023-03-11T10:16:09.991Z,38.03
2023-03-11T10:17:09.761Z,38.24
2023-03-11T10:18:09.859Z,38.65
2023-03-11T10:19:09.905Z,37.83
2023-03-11T10:20:09.841Z,37.83
2023-03-11T10:21:09.727Z,38.77
2023-03-11T10:22:09.808Z,37.95
2023-03-11T10:23:10.711Z,38.07
2023-03-11T10:24:10.000Z,38.60
2023-03-11T10:25:09.748Z,37.69
2023-03-11T10:26:09.648Z,37.51
2023-03-11T10:27:09.868Z,37.93
2023-03-11T10:28:09.602Z,38.24
2023-03-11T10:29:09.800Z,38.36
2023-03-11T10:30:08.924Z,38.06
2023-03-11T10:31:09.703Z,38.36
2023-03-11T10:32:09.619Z,39.10
2023-03-11T10:33:09.706Z,39.31
2023-03-11T10:34:09.509Z,38.89
2023-03-11T10:35:10.258Z,39.12
2023-03-11T10:36:09.623Z,39.32
2023-03-11T10:37:08.840Z,39.24
2023-03-11T10:38:09.527Z,39.14
2023-03-11T10:39:09.819Z,39.24
2023-03-11T10:40:09.600Z,39.14
2023-03-11T10:41:09.351Z,38.59
2023-03-11T10:42:09.700Z,38.24
2023-03-11T10:43:09.434Z,37.18
2023-03-11T10:44:09.534Z,35.31
2023-03-11T10:45:09.549Z,33.40
2023-03-11T10:46:10.082Z,32.23
2023-03-11T10:47:09.457Z,31.43
2023-03-11T10:48:09.495Z,32.01
2023-03-11T10:49:09.519Z,31.82
2023-03-11T10:50:09.571Z,32.08
2023-03-11T10:51:09.408Z,30.64
2023-03-11T10:52:09.555Z,30.29
2023-03-11T10:53:09.442Z,28.74
2023-03-11T10:54:09.599Z,29.22
2023-03-11T10:55:09.418Z,28.38
2023-03-11T10:56:09.248Z,27.89
2023-03-11T10:57:09.503Z,30.03
2023-03-11T10:58:09.303Z,31.85
2023-03-11T10:59:09.492Z,33.54
2023-03-11T11:00:09.377Z,34.39
2023-03-11T11:01:09.401Z,35.33
2023-03-11T11:02:09.390Z,36.19
2023-03-11T11:03:09.371Z,37.24
2023-03-11T11:04:09.209Z,37.88
2023-03-11T11:05:09.460Z,38.41
2023-03-11T11:06:09.173Z,39.22
2023-03-11T11:07:09.432Z,37.26
2023-03-11T11:08:09.212Z,36.10
2023-03-11T11:09:09.431Z,36.61
2023-03-11T11:10:09.272Z,35.89
2023-03-11T11:11:09.094Z,36.02
2023-03-11T11:12:09.196Z,36.98
2023-03-11T11:13:09.065Z,36.68
2023-03-11T11:14:09.366Z,36.70
2023-03-11T11:15:09.203Z,36.72
2023-03-11T11:16:09.347Z,37.13
2023-03-11T11:17:09.105Z,36.43
2023-03-11T11:18:09.225Z,36.87
2023-03-11T11:19:09.237Z,36.87
2023-03-11T11:20:09.203Z,37.38
2023-03-11T11:21:09.098Z,36.87
2023-03-11T11:22:09.244Z,36.87
2023-03-11T11:23:09.054Z,37.77
2023-03-11T11:24:09.527Z,37.96
2023-03-11T11:25:09.682Z,37.33
2023-03-11T11:26:08.968Z,36.49
2023-03-11T11:27:09.419Z,35.47
2023-03-11T11:28:09.137Z,34.65
2023-03-11T11:29:09.493Z,34.25
2023-03-11T11:30:09.083Z,34.56
2023-03-11T11:31:09.230Z,35.08
2023-03-11T11:32:09.246Z,34.94
2023-03-11T11:33:09.033Z,35.85
2023-03-11T11:34:08.875Z,35.11
2023-03-11T11:35:08.994Z,34.09
2023-03-11T11:36:08.935Z,33.68
2023-03-11T11:37:10.004Z,35.22
2023-03-11T11:38:08.893Z,34.60
2023-03-11T11:39:09.062Z,34.09
2023-03-11T11:40:10.987Z,32.86
2023-03-11T11:41:08.772Z,32.48
2023-03-11T11:42:08.911Z,32.29
2023-03-11T11:43:08.781Z,32.60
2023-03-11T11:44:08.881Z,33.54
2023-03-11T11:45:08.783Z,33.84
2023-03-11T11:46:09.196Z,33.62
2023-03-11T11:47:08.755Z,33.73
2023-03-11T11:48:08.909Z,33.23
2023-03-11T11:49:08.761Z,33.84
2023-03-11T11:50:08.890Z,34.36
2023-03-11T11:51:08.816Z,33.83
2023-03-11T11:52:08.850Z,34.36
2023-03-11T11:53:08.748Z,34.56
2023-03-11T11:54:08.862Z,34.25
2023-03-11T11:55:08.859Z,33.84
2023-03-11T11:56:08.888Z,34.48
2023-03-11T11:57:09.219Z,34.68
2023-03-11T11:58:08.629Z,34.36
2023-03-11T11:59:08.688Z,34.99
2023-03-11T12:00:08.529Z,35.50
2023-03-11T12:01:08.802Z,35.71
2023-03-11T12:02:08.752Z,35.30
2023-03-11T12:03:08.679Z,35.42
2023-03-11T12:04:08.600Z,36.44
2023-03-11T12:05:09.312Z,36.56
2023-03-11T12:06:08.581Z,36.98
2023-03-11T12:07:08.770Z,37.07
2023-03-11T12:08:08.631Z,37.11
2023-03-11T12:09:08.710Z,37.93
2023-03-11T12:10:23.482Z,37.62
2023-03-11T12:11:08.765Z,37.71
2023-03-11T12:12:08.591Z,37.60
2023-03-11T12:13:08.567Z,38.02
2023-03-11T12:14:08.589Z,38.43
2023-03-11T12:15:08.728Z,38.32
2023-03-11T12:16:08.727Z,37.81
2023-03-11T12:17:08.469Z,38.10
2023-03-11T12:18:08.728Z,38.00
2023-03-11T12:19:08.460Z,38.00
2023-03-11T12:20:08.569Z,38.31
2023-03-11T12:21:08.458Z,38.49
2023-03-11T12:22:08.518Z,38.49
2023-03-11T12:23:08.446Z,37.88
2023-03-11T12:24:08.473Z,38.21
2023-03-11T12:25:08.472Z,38.12
2023-03-11T12:26:08.248Z,38.00
2023-03-11T12:27:08.488Z,37.92
2023-03-11T12:28:08.298Z,39.06
2023-03-11T12:29:08.522Z,38.94
2023-03-11T12:30:08.348Z,39.13
2023-03-11T12:31:08.458Z,38.90
2023-03-11T12:32:08.270Z,38.28
2023-03-11T12:33:08.360Z,38.37
2023-03-11T12:34:08.334Z,38.28
2023-03-11T12:35:08.470Z,38.05
2023-03-11T12:36:08.344Z,37.74
2023-03-11T12:37:08.329Z,37.32
2023-03-11T12:38:08.235Z,38.03
2023-03-11T12:39:08.442Z,37.95
2023-03-11T12:40:08.615Z,38.35
2023-03-11T12:41:08.293Z,38.05
2023-03-11T12:42:08.400Z,37.86
2023-03-11T12:43:08.070Z,37.68
2023-03-11T12:44:08.812Z,37.26
2023-03-11T12:45:08.324Z,37.69
2023-03-11T12:46:07.491Z,37.90
2023-03-11T12:47:08.463Z,38.21
2023-03-11T12:48:08.260Z,37.69
2023-03-11T12:49:08.131Z,37.71
2023-03-11T12:50:08.301Z,38.04
2023-03-11T12:51:08.107Z,38.22
2023-03-11T12:52:08.200Z,38.04